Search METAR Data

METAR Data for ENMH:

ENMH 190920Z 35007KT CAVOK 17/12 Q1016